Sct Santiago — V7NF7 — position and weather

sailwx.info

Track history (hours):
 
Tides and Currents Weather Stations Pressure Air Temp Water Temp Dewpoint Dewpoint Depression Visibility Wind Speed Wind Dir Waves Ship Positions

Sct Santiago

Last reported at 2016-May-03 21:29 UTC. Time now 2016-May-03 22:05 UTC.
Position N 22°29' E 113°52'.

; draft 8.3 m.

Type: Cargo ship. MMSI: 538002953.

Date/timePositionNaut miles runAvg speedWind from/ knotsBaromVisibWave heightAir tempDewpointWater temp
2016-May-03 21:29N 22°29' E 113°52'0 0.0
2016-May-03 20:16N 22°29' E 113°52'0 0.0
2016-May-03 19:28N 22°29' E 113°52'0 0.0
2016-May-03 16:10N 22°29' E 113°52'0 0.0
2016-May-03 15:32N 22°29' E 113°52'15 6.2
2016-May-03 13:07N 22°20' E 114°05'3 5.1
2016-May-03 12:34N 22°20' E 114°08'0 0.0
2016-May-03 11:31N 22°20' E 114°08'0 0.0
2016-May-03 10:31N 22°20' E 114°08'0 0.0
2016-May-03 09:31N 22°20' E 114°08'0 0.0
2016-May-03 08:31N 22°20' E 114°08'0 0.0
2016-May-03 07:31N 22°20' E 114°08'0 0.0
2016-May-03 06:25N 22°20' E 114°08'0 0.0
2016-May-03 05:31N 22°20' E 114°08'0 0.0
2016-May-03 04:31N 22°20' E 114°08'0 0.0
2016-May-03 03:31N 22°20' E 114°08'0 0.0
2016-May-03 02:33N 22°20' E 114°08'7 6.9
2016-May-03 01:32N 22°13' E 114°10'10 0.2
2016-May-01 04:33N 22°09' E 114°20'  
2016-Apr-27 11:13N 22°00' E 114°25'  
Track history (hours):
 
Tides and Currents Weather Stations Pressure Air Temp Water Temp Dewpoint Dewpoint Depression Visibility Wind Speed Wind Dir Waves Ship Positions

Sct Santiago

Last reported at 2016-May-03 21:29 UTC. Time now 2016-May-03 22:05 UTC.
Position N 22°29' E 113°52'.

; draft 8.3 m.

Type: Cargo ship. MMSI: 538002953.

Date/timePositionNaut miles runAvg speedWind from/ knotsBaromVisibWave heightAir tempDewpointWater temp
2016-May-03 21:29N 22°29' E 113°52'0 0.0
2016-May-03 20:16N 22°29' E 113°52'0 0.0
2016-May-03 19:28N 22°29' E 113°52'0 0.0
2016-May-03 16:10N 22°29' E 113°52'0 0.0
2016-May-03 15:32N 22°29' E 113°52'15 6.2
2016-May-03 13:07N 22°20' E 114°05'3 5.1
2016-May-03 12:34N 22°20' E 114°08'0 0.0
2016-May-03 11:31N 22°20' E 114°08'0 0.0
2016-May-03 10:31N 22°20' E 114°08'0 0.0
2016-May-03 09:31N 22°20' E 114°08'0 0.0
2016-May-03 08:31N 22°20' E 114°08'0 0.0
2016-May-03 07:31N 22°20' E 114°08'0 0.0
2016-May-03 06:25N 22°20' E 114°08'0 0.0
2016-May-03 05:31N 22°20' E 114°08'0 0.0
2016-May-03 04:31N 22°20' E 114°08'0 0.0
2016-May-03 03:31N 22°20' E 114°08'0 0.0
2016-May-03 02:33N 22°20' E 114°08'7 6.9
2016-May-03 01:32N 22°13' E 114°10'10 0.2
2016-May-01 04:33N 22°09' E 114°20'  
2016-Apr-27 11:13N 22°00' E 114°25'  

Dump ship's entire track history